Time;durP1;ratioP1;P1;durP2;ratioP2;P2;SDS_P1;SDS_P2;PMS_P1;PMS_P2;Temp;Humidity;BMP_temperature;BMP_pressure;BME280_temperature;BME280_humidity;BME280_pressure;Samples;Min_cycle;Max_cycle;Signal;HPM_P1;HPM_P2
2021/05/31 00:00:56;;;;;;;6.10;5.60;;;11.00;99.90;;;;;;5052444;28;20252;-89
2021/05/31 00:03:31;;;;;;;6.33;5.60;;;11.00;99.90;;;;;;5049328;28;20226;-88
2021/05/31 00:05:59;;;;;;;7.03;5.40;;;10.90;99.90;;;;;;5053156;28;20263;-88
2021/05/31 00:08:26;;;;;;;6.47;5.57;;;10.90;99.90;;;;;;5068393;28;20316;-89
2021/05/31 00:10:56;;;;;;;6.33;5.73;;;10.90;99.90;;;;;;5061183;28;20751;-89
2021/05/31 00:13:24;;;;;;;8.10;7.40;;;10.80;99.90;;;;;;5049499;28;20242;-85
2021/05/31 00:15:54;;;;;;;7.00;6.40;;;10.90;99.90;;;;;;5049857;28;20242;-89
2021/05/31 00:18:24;;;;;;;7.17;6.57;;;10.80;99.90;;;;;;5048582;28;20249;-87
2021/05/31 00:20:52;;;;;;;8.33;7.53;;;10.80;99.90;;;;;;5046667;28;20571;-89
2021/05/31 00:23:20;;;;;;;8.73;7.83;;;10.80;99.90;;;;;;5050132;28;20242;-88
2021/05/31 00:25:48;;;;;;;12.33;8.73;;;10.80;99.90;;;;;;5060199;28;20327;-89
2021/05/31 00:28:17;;;;;;;9.27;8.37;;;10.80;99.90;;;;;;5049803;28;20241;-88
2021/05/31 00:30:45;;;;;;;11.13;9.57;;;10.80;99.90;;;;;;5049411;28;20270;-89
2021/05/31 00:33:13;;;;;;;10.23;8.80;;;10.80;99.90;;;;;;5048789;28;20240;-88
2021/05/31 00:35:40;;;;;;;10.63;8.80;;;10.70;99.90;;;;;;5049405;28;20237;-88
2021/05/31 00:38:09;;;;;;;9.63;8.57;;;10.60;99.90;;;;;;5064931;28;20235;-88
2021/05/31 00:40:37;;;;;;;9.43;8.43;;;10.60;99.90;;;;;;5049216;28;20321;-84
2021/05/31 00:43:05;;;;;;;10.00;9.00;;;10.60;99.90;;;;;;5049889;28;20308;-85
2021/05/31 00:45:34;;;;;;;9.40;8.50;;;10.50;99.90;;;;;;5050182;28;20318;-89
2021/05/31 00:48:02;;;;;;;9.03;8.33;;;10.40;99.90;;;;;;5049641;28;20289;-87
2021/05/31 00:50:30;;;;;;;9.27;8.37;;;10.40;99.90;;;;;;5049371;28;20243;-89
2021/05/31 00:52:57;;;;;;;8.90;8.10;;;10.40;99.90;;;;;;5048955;28;20238;-86
2021/05/31 00:55:25;;;;;;;8.43;7.70;;;10.40;99.90;;;;;;5064314;28;20718;-85
2021/05/31 00:57:55;;;;;;;8.97;7.70;;;10.30;99.90;;;;;;5068272;28;20236;-89
2021/05/31 01:00:26;;;;;;;8.90;7.80;;;10.30;99.90;;;;;;5067934;28;20232;-89
2021/05/31 01:02:56;;;;;;;9.47;8.50;;;10.30;99.90;;;;;;5049990;28;20237;-87
2021/05/31 01:05:24;;;;;;;10.13;9.13;;;10.30;99.90;;;;;;5049353;28;20316;-88
2021/05/31 01:07:58;;;;;;;9.20;8.20;;;10.30;99.90;;;;;;5040080;28;20818;-88
2021/05/31 01:10:39;;;;;;;9.47;8.57;;;10.20;99.90;;;;;;5049121;28;20256;-87
2021/05/31 01:13:14;;;;;;;9.83;8.93;;;10.20;99.90;;;;;;5052521;28;20326;-89
2021/05/31 01:15:47;;;;;;;8.73;7.93;;;10.10;99.90;;;;;;5053852;28;20335;-88
2021/05/31 01:18:22;;;;;;;9.50;8.60;;;10.10;99.90;;;;;;5075242;28;20244;-89
2021/05/31 01:21:03;;;;;;;10.33;9.43;;;10.00;99.90;;;;;;5054830;28;20704;-90
2021/05/31 01:23:36;;;;;;;8.63;7.93;;;10.00;99.90;;;;;;5069663;28;20687;-89
2021/05/31 01:26:11;;;;;;;8.83;8.03;;;10.00;99.90;;;;;;5064775;28;20235;-87
2021/05/31 01:29:00;;;;;;;9.10;8.30;;;10.00;99.90;;;;;;5052401;28;20240;-86
2021/05/31 01:31:44;;;;;;;9.30;8.50;;;9.90;99.90;;;;;;5063228;28;20261;-89
2021/05/31 01:34:15;;;;;;;9.10;8.30;;;9.90;99.90;;;;;;5072094;28;20693;-89
2021/05/31 01:36:46;;;;;;;8.90;8.10;;;9.90;99.90;;;;;;5053966;28;20600;-88
2021/05/31 01:39:20;;;;;;;9.47;8.67;;;9.90;99.90;;;;;;5067946;28;20655;-88
2021/05/31 01:41:48;;;;;;;9.10;8.30;;;9.90;99.90;;;;;;5062141;28;20663;-88
2021/05/31 01:44:18;;;;;;;8.50;7.67;;;9.90;99.90;;;;;;5072532;28;20714;-87
2021/05/31 01:46:47;;;;;;;7.77;7.07;;;9.80;99.90;;;;;;5062996;28;20325;-88
2021/05/31 01:49:16;;;;;;;6.70;6.10;;;9.80;99.90;;;;;;5052772;28;20322;-87
2021/05/31 01:51:46;;;;;;;6.07;5.57;;;9.70;99.90;;;;;;5070866;28;20244;-89
2021/05/31 01:54:15;;;;;;;6.10;5.60;;;9.70;99.90;;;;;;5057828;28;20246;-87
2021/05/31 01:56:46;;;;;;;6.47;5.97;;;9.70;99.90;;;;;;5051999;28;20233;-86
2021/05/31 01:59:15;;;;;;;8.03;6.97;;;9.70;99.90;;;;;;5052451;28;20755;-90
2021/05/31 02:01:46;;;;;;;7.53;6.90;;;9.60;99.90;;;;;;5051959;28;20288;-88
2021/05/31 02:04:19;;;;;;;6.70;6.00;;;9.50;99.90;;;;;;5067320;28;20244;-88
2021/05/31 02:06:49;;;;;;;7.30;6.60;;;9.50;99.90;;;;;;5052640;28;20260;-87
2021/05/31 02:09:18;;;;;;;6.87;6.27;;;9.50;99.90;;;;;;5052037;28;20234;-90
2021/05/31 02:11:56;;;;;;;7.63;6.93;;;9.40;99.90;;;;;;5076743;28;20252;-89
2021/05/31 02:14:31;;;;;;;6.80;6.20;;;9.40;99.90;;;;;;5071317;28;20256;-88
2021/05/31 02:17:06;;;;;;;7.20;6.50;;;9.40;99.90;;;;;;5067613;28;20248;-90
2021/05/31 02:19:35;;;;;;;8.77;6.47;;;9.40;99.90;;;;;;5051614;28;20252;-88
2021/05/31 02:22:05;;;;;;;6.70;6.00;;;9.40;99.90;;;;;;5058770;28;20237;-89
2021/05/31 02:24:34;;;;;;;7.30;6.60;;;9.30;99.90;;;;;;5053802;28;20240;-88
2021/05/31 02:27:03;;;;;;;7.00;6.30;;;9.30;99.90;;;;;;5051694;28;20242;-87
2021/05/31 02:29:32;;;;;;;6.90;6.30;;;9.30;99.90;;;;;;5051474;28;20596;-89
2021/05/31 02:32:01;;;;;;;7.37;6.67;;;9.30;99.90;;;;;;5066065;28;20236;-89
2021/05/31 02:34:33;;;;;;;6.80;6.10;;;9.20;99.90;;;;;;5063440;28;20298;-88
2021/05/31 02:37:01;;;;;;;6.53;5.83;;;9.20;99.90;;;;;;5062877;28;20240;-88
2021/05/31 02:39:32;;;;;;;6.47;5.87;;;9.20;99.90;;;;;;5071046;28;21012;-88
2021/05/31 02:41:59;;;;;;;8.27;7.43;;;9.10;99.90;;;;;;5069270;28;20602;-89
2021/05/31 02:44:28;;;;;;;8.57;7.77;;;9.20;99.90;;;;;;5077754;28;20290;-88
2021/05/31 02:46:56;;;;;;;8.93;7.77;;;9.10;99.90;;;;;;5061869;28;20239;-86
2021/05/31 02:49:26;;;;;;;10.00;8.27;;;9.10;99.90;;;;;;5071313;28;20323;-87
2021/05/31 02:51:54;;;;;;;9.47;8.43;;;9.10;99.90;;;;;;5070746;28;20244;-89
2021/05/31 02:54:21;;;;;;;10.00;8.97;;;9.10;99.90;;;;;;5052747;28;20766;-89
2021/05/31 02:56:51;;;;;;;10.77;9.20;;;9.10;99.90;;;;;;5050859;28;20268;-90
2021/05/31 02:59:19;;;;;;;10.30;9.30;;;9.10;99.90;;;;;;5050938;28;20324;-87
2021/05/31 03:01:48;;;;;;;10.40;9.40;;;9.10;99.90;;;;;;5051166;28;20335;-88
2021/05/31 03:04:16;;;;;;;10.03;9.13;;;9.10;99.90;;;;;;5051348;28;20225;-87
2021/05/31 03:06:45;;;;;;;10.47;9.43;;;9.10;99.90;;;;;;5060575;28;20229;-88
2021/05/31 03:09:13;;;;;;;11.07;9.60;;;9.10;99.90;;;;;;5086941;28;20263;-89
2021/05/31 03:11:41;;;;;;;9.70;8.80;;;9.10;99.90;;;;;;5071252;28;20251;-87
2021/05/31 03:14:10;;;;;;;11.00;9.93;;;9.20;99.90;;;;;;5050749;28;20241;-89
2021/05/31 03:16:38;;;;;;;10.77;9.67;;;9.20;99.90;;;;;;5051951;28;20236;-87
2021/05/31 03:19:06;;;;;;;11.40;10.17;;;9.30;99.90;;;;;;5063047;28;20723;-90
2021/05/31 03:21:36;;;;;;;11.03;9.93;;;9.40;99.90;;;;;;5065354;28;20322;-88
2021/05/31 03:24:07;;;;;;;11.00;9.90;;;9.30;99.90;;;;;;5053330;28;20697;-88
2021/05/31 03:26:34;;;;;;;9.90;8.53;;;9.30;99.90;;;;;;5065650;28;20244;-89
2021/05/31 03:29:03;;;;;;;10.60;9.40;;;9.20;99.90;;;;;;5050402;28;20263;-89
2021/05/31 03:31:31;;;;;;;10.83;9.73;;;9.20;99.90;;;;;;5049543;28;20240;-90
2021/05/31 03:33:59;;;;;;;10.67;9.57;;;9.10;99.90;;;;;;5049988;28;20233;-90
2021/05/31 03:36:30;;;;;;;10.43;9.37;;;9.20;99.90;;;;;;5065337;28;20254;-89
2021/05/31 03:38:58;;;;;;;9.90;8.90;;;9.30;99.90;;;;;;5065422;28;20336;-90
2021/05/31 03:41:27;;;;;;;8.83;8.03;;;9.20;99.90;;;;;;5049860;28;20701;-89
2021/05/31 03:43:55;;;;;;;10.10;8.80;;;9.20;99.90;;;;;;5064859;28;20227;-89
2021/05/31 03:46:23;;;;;;;9.77;8.87;;;9.40;99.90;;;;;;5069171;28;20240;-89
2021/05/31 03:48:52;;;;;;;10.80;9.80;;;9.30;99.90;;;;;;5050062;28;20260;-89
2021/05/31 03:51:22;;;;;;;12.07;10.80;;;9.50;99.90;;;;;;5049705;28;21066;-87
2021/05/31 03:53:50;;;;;;;11.30;10.20;;;9.70;99.90;;;;;;5049414;28;20693;-90
2021/05/31 03:56:18;;;;;;;11.70;10.40;;;9.70;99.90;;;;;;5064521;28;20718;-89
2021/05/31 03:58:49;;;;;;;12.10;10.80;;;9.90;99.90;;;;;;5049819;28;20267;-88
2021/05/31 04:01:24;;;;;;;11.87;10.07;;;9.80;99.90;;;;;;5050054;28;20237;-89
2021/05/31 04:03:55;;;;;;;10.17;9.07;;;10.00;99.90;;;;;;5047380;28;20948;-87
2021/05/31 04:06:33;;;;;;;9.23;8.33;;;10.00;99.90;;;;;;5031498;28;20766;-88
2021/05/31 04:11:51;;;;;;;9.87;8.87;;;10.10;99.90;;;;;;5075027;28;20242;-88
2021/05/31 04:14:20;;;;;;;10.43;9.33;;;10.20;99.90;;;;;;5069192;28;20238;-88
2021/05/31 04:16:52;;;;;;;10.70;9.70;;;10.50;99.90;;;;;;5067749;28;20773;-89
2021/05/31 04:19:21;;;;;;;11.23;10.00;;;10.50;99.90;;;;;;5057045;28;20245;-88
2021/05/31 04:21:51;;;;;;;15.37;13.73;;;10.60;99.90;;;;;;5062009;28;20241;-86
2021/05/31 04:24:19;;;;;;;16.83;14.37;;;10.60;99.90;;;;;;5049609;28;20725;-89
2021/05/31 04:26:49;;;;;;;14.50;13.00;;;10.90;99.90;;;;;;5048211;28;20304;-89
2021/05/31 04:29:19;;;;;;;13.17;11.60;;;11.00;99.90;;;;;;5049849;28;20241;-87
2021/05/31 04:31:51;;;;;;;14.37;12.87;;;11.00;99.90;;;;;;5053052;28;20677;-89
2021/05/31 04:34:19;;;;;;;18.30;14.47;;;10.90;99.90;;;;;;5049565;28;20243;-89
2021/05/31 04:36:47;;;;;;;20.73;14.20;;;11.10;99.90;;;;;;5058985;28;20261;-89
2021/05/31 04:39:15;;;;;;;15.20;13.13;;;11.20;99.90;;;;;;5069490;28;20235;-89
2021/05/31 04:41:44;;;;;;;14.33;11.70;;;11.00;99.90;;;;;;5075663;28;20333;-88
2021/05/31 04:44:13;;;;;;;12.70;11.40;;;11.00;99.90;;;;;;5048164;28;20245;-89
2021/05/31 04:46:42;;;;;;;15.10;11.87;;;11.00;99.90;;;;;;5047425;28;20249;-86
2021/05/31 04:49:10;;;;;;;13.37;11.97;;;11.00;99.90;;;;;;5049340;28;20706;-87
2021/05/31 04:51:38;;;;;;;13.67;12.00;;;11.10;99.90;;;;;;5056794;28;20237;-88
2021/05/31 04:54:08;;;;;;;13.17;11.80;;;11.10;99.90;;;;;;5051698;28;20233;-85
2021/05/31 04:56:36;;;;;;;15.20;12.90;;;11.20;99.90;;;;;;5055938;28;20348;-84
2021/05/31 04:59:08;;;;;;;17.17;14.60;;;11.40;99.90;;;;;;5059851;28;20234;-87
2021/05/31 05:01:37;;;;;;;20.03;16.10;;;11.60;99.90;;;;;;5056808;28;20617;-87
2021/05/31 05:04:07;;;;;;;17.17;14.03;;;11.80;99.90;;;;;;5036442;28;20328;-85
2021/05/31 05:06:37;;;;;;;16.17;12.67;;;11.90;99.90;;;;;;5045271;28;20243;-87
2021/05/31 05:09:05;;;;;;;14.47;12.30;;;12.00;99.90;;;;;;5051640;28;20246;-88
2021/05/31 05:11:34;;;;;;;17.43;13.67;;;12.30;99.90;;;;;;5042559;28;20241;-88
2021/05/31 05:14:02;;;;;;;15.70;11.43;;;12.50;99.90;;;;;;5045052;28;20594;-88
2021/05/31 05:16:31;;;;;;;15.23;12.07;;;12.50;99.90;;;;;;5048292;28;20238;-86
2021/05/31 05:18:59;;;;;;;18.27;12.73;;;12.70;99.90;;;;;;5053387;28;20695;-88
2021/05/31 05:21:28;;;;;;;14.57;11.27;;;13.00;99.90;;;;;;5050881;28;20633;-87
2021/05/31 05:23:56;;;;;;;14.43;11.23;;;13.20;99.90;;;;;;5066981;28;20264;-86
2021/05/31 05:26:25;;;;;;;11.23;9.90;;;13.50;99.90;;;;;;5068328;28;20233;-88
2021/05/31 05:28:55;;;;;;;12.67;9.83;;;13.80;99.90;;;;;;5060885;28;20269;-87
2021/05/31 05:31:24;;;;;;;11.33;9.27;;;14.00;99.90;;;;;;5057899;28;20639;-88
2021/05/31 05:33:52;;;;;;;13.30;9.70;;;14.40;99.90;;;;;;5068063;28;20348;-87
2021/05/31 05:36:26;;;;;;;11.47;8.47;;;14.50;99.90;;;;;;5053445;28;20243;-87
2021/05/31 05:41:50;;;;;;;8.70;7.80;;;14.60;99.90;;;;;;5030403;28;20254;-87
2021/05/31 05:44:43;;;;;;;9.00;7.07;;;14.90;99.90;;;;;;5031037;28;20238;-86
2021/05/31 05:49:58;;;;;;;7.20;6.50;;;15.60;99.90;;;;;;5050160;28;20236;-91
2021/05/31 05:52:26;;;;;;;9.17;5.87;;;15.90;99.90;;;;;;5065584;28;20310;-89
2021/05/31 05:54:55;;;;;;;7.30;6.53;;;16.20;99.90;;;;;;5051350;28;20236;-91
2021/05/31 05:57:52;;;;;;;9.33;6.83;;;16.40;99.90;;;;;;5056590;28;20232;-92
2021/05/31 06:00:21;;;;;;;7.30;6.27;;;16.50;99.90;;;;;;5038209;28;20235;-91
2021/05/31 06:02:54;;;;;;;8.73;6.97;;;16.70;99.90;;;;;;5070308;28;20648;-91
2021/05/31 06:05:22;;;;;;;7.80;5.87;;;16.80;99.90;;;;;;5052987;28;20228;-86
2021/05/31 06:07:50;;;;;;;9.47;6.50;;;16.90;99.90;;;;;;5050276;28;20271;-87
2021/05/31 06:10:19;;;;;;;7.37;5.73;;;17.20;99.90;;;;;;5058020;28;20722;-87
2021/05/31 06:12:49;;;;;;;7.70;5.37;;;17.40;99.90;;;;;;5051588;28;20668;-87
2021/05/31 06:15:17;;;;;;;6.50;5.40;;;17.60;99.90;;;;;;5051543;28;20247;-88
2021/05/31 06:17:45;;;;;;;6.57;5.47;;;17.80;99.90;;;;;;5051610;28;20322;-87
2021/05/31 06:20:13;;;;;;;6.57;5.30;;;17.90;99.90;;;;;;5066748;28;20616;-88
2021/05/31 06:22:42;;;;;;;10.67;6.00;;;17.90;99.90;;;;;;5067938;28;20249;-86
2021/05/31 06:25:10;;;;;;;5.80;5.00;;;18.00;99.90;;;;;;5070554;28;20236;-87
2021/05/31 06:27:45;;;;;;;9.73;4.70;;;18.30;99.90;;;;;;5066802;28;20264;-86
2021/05/31 06:30:15;;;;;;;5.53;4.50;;;18.30;99.90;;;;;;5051930;28;20588;-87
2021/05/31 06:32:44;;;;;;;5.90;4.40;;;18.30;99.90;;;;;;5050923;28;20244;-87
2021/05/31 06:35:18;;;;;;;5.27;4.03;;;18.50;99.90;;;;;;5051498;28;20241;-86
2021/05/31 06:37:46;;;;;;;5.60;3.97;;;18.50;99.90;;;;;;5049588;28;20252;-87
2021/05/31 06:40:15;;;;;;;4.80;4.20;;;18.60;99.90;;;;;;5048860;28;20241;-86
2021/05/31 06:42:47;;;;;;;4.33;3.27;;;18.60;99.90;;;;;;5066085;28;20283;-87
2021/05/31 06:45:21;;;;;;;4.47;3.23;;;18.90;99.90;;;;;;5066544;28;20238;-85
2021/05/31 06:47:49;;;;;;;4.47;3.00;;;19.00;99.90;;;;;;5050316;28;20259;-86
2021/05/31 06:50:18;;;;;;;3.77;3.13;;;19.00;99.90;;;;;;5051504;28;20240;-86
2021/05/31 06:52:46;;;;;;;3.40;2.83;;;19.30;99.90;;;;;;5049283;28;20659;-86
2021/05/31 06:55:15;;;;;;;4.73;2.90;;;19.40;99.90;;;;;;5050692;28;20769;-86
2021/05/31 06:57:48;;;;;;;4.00;2.60;;;19.50;99.90;;;;;;5044797;28;20277;-86
2021/05/31 07:00:18;;;;;;;3.67;2.80;;;19.70;99.90;;;;;;5049668;28;20245;-86
2021/05/31 07:02:46;;;;;;;4.40;2.93;;;19.60;99.90;;;;;;5049046;28;20657;-85
2021/05/31 07:05:15;;;;;;;3.30;3.00;;;19.90;99.90;;;;;;5051062;28;20672;-86
2021/05/31 07:07:44;;;;;;;4.23;2.80;;;20.10;99.90;;;;;;5059933;28;20298;-85
2021/05/31 07:10:17;;;;;;;3.10;2.60;;;20.40;99.90;;;;;;5051556;28;20325;-87
2021/05/31 07:12:46;;;;;;;4.57;3.10;;;20.70;99.90;;;;;;5056994;28;20303;-86
2021/05/31 07:15:18;;;;;;;5.93;3.30;;;20.60;99.90;;;;;;5052288;28;20235;-87
2021/05/31 07:17:48;;;;;;;5.20;3.00;;;20.70;99.90;;;;;;5050936;28;20246;-87
2021/05/31 07:20:19;;;;;;;4.70;3.10;;;20.70;99.90;;;;;;5050461;28;20241;-86
2021/05/31 07:22:48;;;;;;;4.03;2.67;;;21.00;99.90;;;;;;5050317;28;20271;-86
2021/05/31 07:25:17;;;;;;;4.90;2.83;;;20.90;99.90;;;;;;5050578;28;20254;-83
2021/05/31 07:27:49;;;;;;;6.00;2.90;;;21.30;99.90;;;;;;5050166;28;20263;-86
2021/05/31 07:30:19;;;;;;;4.33;2.67;;;21.30;99.90;;;;;;5049939;28;20259;-84
2021/05/31 07:32:48;;;;;;;3.10;2.80;;;21.10;99.90;;;;;;5066588;28;20264;-86
2021/05/31 07:35:17;;;;;;;4.43;2.73;;;20.70;99.90;;;;;;5049210;28;20241;-87
2021/05/31 07:37:45;;;;;;;6.30;2.70;;;20.60;99.90;;;;;;5061076;28;20296;-87
2021/05/31 07:40:15;;;;;;;4.43;2.80;;;21.20;99.90;;;;;;5050578;28;20309;-87
2021/05/31 07:42:45;;;;;;;3.27;2.60;;;21.40;99.90;;;;;;5049218;28;20875;-86
2021/05/31 07:45:17;;;;;;;3.10;2.70;;;21.40;99.90;;;;;;5050352;28;20228;-87
2021/05/31 07:47:46;;;;;;;3.20;2.37;;;21.60;99.90;;;;;;5060846;28;20242;-86
2021/05/31 07:50:15;;;;;;;3.27;2.50;;;21.80;99.90;;;;;;5050260;28;20264;-84
2021/05/31 07:52:44;;;;;;;4.23;2.40;;;22.00;99.90;;;;;;5054106;28;20274;-86
2021/05/31 07:55:15;;;;;;;3.87;2.57;;;22.00;99.90;;;;;;5049090;28;20310;-87
2021/05/31 07:57:45;;;;;;;4.33;2.40;;;21.80;99.90;;;;;;5066547;28;20623;-85
2021/05/31 08:00:18;;;;;;;3.77;2.40;;;22.10;99.90;;;;;;5085319;28;20258;-86
2021/05/31 08:02:47;;;;;;;3.63;2.00;;;22.10;99.90;;;;;;5049247;28;20326;-86
2021/05/31 08:05:17;;;;;;;3.77;2.37;;;22.00;99.90;;;;;;5051773;28;20233;-86
2021/05/31 08:07:46;;;;;;;3.80;2.83;;;21.90;99.90;;;;;;5065734;28;20235;-87
2021/05/31 08:10:16;;;;;;;2.80;2.37;;;21.70;99.90;;;;;;5051274;28;20713;-86
2021/05/31 08:12:47;;;;;;;3.80;2.70;;;21.50;99.90;;;;;;5049354;28;20269;-86
2021/05/31 08:15:18;;;;;;;3.27;2.60;;;21.10;99.90;;;;;;5048169;28;20235;-86
2021/05/31 08:17:45;;;;;;;5.30;2.70;;;21.00;99.90;;;;;;5063280;28;20228;-86
2021/05/31 08:20:16;;;;;;;2.60;2.40;;;21.30;99.90;;;;;;5047475;28;20286;-85
2021/05/31 08:22:46;;;;;;;3.07;2.37;;;21.80;99.90;;;;;;5079252;28;20253;-86
2021/05/31 08:25:17;;;;;;;4.53;2.30;;;22.00;99.90;;;;;;5069214;28;20249;-87
2021/05/31 08:27:45;;;;;;;3.00;2.30;;;22.10;99.90;;;;;;5051439;28;20314;-86
2021/05/31 08:30:20;;;;;;;4.23;2.23;;;22.00;99.40;;;;;;5049492;28;20742;-85
2021/05/31 08:32:47;;;;;;;2.97;1.80;;;22.00;99.90;;;;;;5048781;28;20881;-86
2021/05/31 08:35:17;;;;;;;3.27;2.30;;;22.10;99.90;;;;;;5049580;28;20753;-87
2021/05/31 08:37:45;;;;;;;2.93;2.03;;;22.00;96.70;;;;;;5048912;28;21271;-87
2021/05/31 08:40:14;;;;;;;2.90;1.80;;;22.00;98.20;;;;;;5049587;28;20244;-87
2021/05/31 08:42:43;;;;;;;3.00;1.93;;;21.90;98.10;;;;;;5048748;28;20248;-86
2021/05/31 08:45:14;;;;;;;5.23;2.23;;;22.00;99.00;;;;;;5048529;28;20246;-85
2021/05/31 08:47:46;;;;;;;2.97;1.90;;;22.10;99.90;;;;;;5081052;28;20882;-86
2021/05/31 08:50:18;;;;;;;3.30;1.77;;;22.20;96.80;;;;;;5049603;28;20715;-85
2021/05/31 08:52:49;;;;;;;2.87;1.70;;;22.10;97.80;;;;;;5048580;28;20284;-88
2021/05/31 08:55:42;;;;;;;6.17;2.17;;;22.40;98.70;;;;;;5048443;28;20756;-88
2021/05/31 08:58:13;;;;;;;2.40;2.17;;;22.60;95.30;;;;;;5046400;28;20308;-87
2021/05/31 09:00:42;;;;;;;4.13;2.00;;;22.50;94.10;;;;;;5048372;28;20319;-86
2021/05/31 09:03:13;;;;;;;4.37;2.33;;;22.60;93.60;;;;;;5055089;28;20599;-84
2021/05/31 09:05:49;;;;;;;4.07;2.10;;;22.60;96.80;;;;;;5050218;28;20239;-87
2021/05/31 09:08:24;;;;;;;3.73;2.57;;;22.70;95.60;;;;;;5049694;28;20699;-88
2021/05/31 09:10:55;;;;;;;3.90;2.00;;;23.10;93.30;;;;;;5051000;28;20239;-86
2021/05/31 09:13:50;;;;;;;4.90;2.27;;;23.40;94.50;;;;;;5049805;28;20244;-87
2021/05/31 09:16:32;;;;;;;3.43;2.00;;;23.90;96.40;;;;;;5060694;28;20755;-87
2021/05/31 09:19:06;;;;;;;5.27;2.47;;;24.20;96.00;;;;;;5040580;28;20299;-87
2021/05/31 09:21:38;;;;;;;4.17;2.53;;;23.80;93.40;;;;;;5049238;28;20719;-86
2021/05/31 09:24:11;;;;;;;3.53;2.00;;;23.90;93.20;;;;;;5049487;28;20243;-86
2021/05/31 09:26:56;;;;;;;3.93;2.20;;;24.20;92.40;;;;;;5060707;28;20241;-86
2021/05/31 09:29:24;;;;;;;2.97;2.00;;;24.70;93.70;;;;;;5029705;28;20236;-87
2021/05/31 09:32:00;;;;;;;3.60;2.13;;;24.60;90.50;;;;;;5050656;28;20324;-87
2021/05/31 09:34:30;;;;;;;5.07;2.20;;;24.60;92.10;;;;;;5052969;28;20266;-86
2021/05/31 09:37:24;;;;;;;2.30;2.00;;;24.50;90.80;;;;;;5059043;28;20237;-87
2021/05/31 09:40:03;;;;;;;4.83;1.93;;;24.70;91.10;;;;;;5048462;28;20233;-87
2021/05/31 09:42:33;;;;;;;4.27;2.13;;;24.70;90.60;;;;;;5066775;28;20719;-87
2021/05/31 09:45:06;;;;;;;4.57;2.20;;;24.40;91.90;;;;;;5068499;28;20649;-88
2021/05/31 09:48:03;;;;;;;3.97;2.50;;;24.30;86.50;;;;;;5052756;28;20243;-85
2021/05/31 09:50:37;;;;;;;3.70;2.40;;;24.10;88.90;;;;;;5044718;28;20243;-86
2021/05/31 09:53:08;;;;;;;4.23;2.33;;;24.30;91.60;;;;;;5035603;28;20313;-85
2021/05/31 09:55:39;;;;;;;3.17;2.10;;;24.10;92.30;;;;;;5048632;28;20390;-85
2021/05/31 09:58:09;;;;;;;3.40;2.50;;;24.60;90.50;;;;;;5033187;28;20689;-86
2021/05/31 10:00:46;;;;;;;3.63;2.83;;;24.70;89.10;;;;;;5051650;28;20307;-84
2021/05/31 10:03:32;;;;;;;4.43;2.40;;;24.70;92.30;;;;;;5058628;28;20230;-87
2021/05/31 10:06:10;;;;;;;3.23;2.33;;;25.10;92.20;;;;;;5076164;28;21502;-86
2021/05/31 10:08:43;;;;;;;4.97;2.37;;;25.20;90.80;;;;;;5045706;28;20255;-85
2021/05/31 10:11:14;;;;;;;3.97;2.07;;;24.70;88.50;;;;;;5052027;28;20241;-85
2021/05/31 10:13:43;;;;;;;5.03;2.17;;;24.90;90.80;;;;;;5051614;28;20246;-85
2021/05/31 10:16:13;;;;;;;5.37;2.47;;;25.20;89.90;;;;;;5056147;28;20338;-84
2021/05/31 10:18:41;;;;;;;3.23;2.03;;;25.60;85.20;;;;;;5087703;28;20282;-85
2021/05/31 10:21:14;;;;;;;3.00;2.17;;;25.70;91.30;;;;;;5058925;28;20250;-83
2021/05/31 10:23:42;;;;;;;5.97;2.50;;;26.20;90.70;;;;;;5048270;28;20289;-89
2021/05/31 10:26:16;;;;;;;3.73;2.30;;;26.30;89.20;;;;;;5047246;28;20245;-90
2021/05/31 10:28:45;;;;;;;5.37;2.40;;;25.70;87.40;;;;;;5052902;28;20240;-88
2021/05/31 10:31:15;;;;;;;2.97;2.30;;;26.10;87.30;;;;;;5071793;28;20283;-87
2021/05/31 10:33:43;;;;;;;3.43;2.33;;;26.20;88.40;;;;;;5073568;28;21083;-88
2021/05/31 10:36:22;;;;;;;3.13;2.37;;;25.90;84.60;;;;;;5057053;28;20246;-87
2021/05/31 10:39:01;;;;;;;4.10;2.67;;;25.90;84.10;;;;;;5055955;28;20705;-86
2021/05/31 10:41:39;;;;;;;4.37;2.47;;;25.70;82.80;;;;;;5055573;28;20272;-88
2021/05/31 10:44:17;;;;;;;4.23;2.40;;;26.10;86.60;;;;;;5059253;28;20733;-86
2021/05/31 10:46:46;;;;;;;4.83;2.33;;;26.30;88.60;;;;;;5058421;28;20234;-87
2021/05/31 10:49:19;;;;;;;4.60;2.43;;;25.80;85.60;;;;;;5073845;28;20266;-85
2021/05/31 10:51:49;;;;;;;4.33;2.37;;;25.80;86.10;;;;;;5054816;28;20307;-87
2021/05/31 10:54:18;;;;;;;5.07;2.40;;;25.60;85.90;;;;;;5072019;28;20317;-87
2021/05/31 10:56:47;;;;;;;3.13;2.50;;;25.60;83.90;;;;;;5058005;28;20250;-87
2021/05/31 10:59:22;;;;;;;3.90;2.40;;;25.20;84.40;;;;;;5054104;28;20269;-86
2021/05/31 11:01:51;;;;;;;5.30;2.83;;;25.00;85.20;;;;;;5058067;28;20280;-87
2021/05/31 11:04:25;;;;;;;3.47;2.27;;;25.30;88.10;;;;;;5054831;28;20710;-87
2021/05/31 11:06:58;;;;;;;5.20;2.60;;;26.10;84.60;;;;;;5057230;28;20249;-88
2021/05/31 11:09:30;;;;;;;4.70;2.67;;;26.30;82.80;;;;;;5052684;28;21041;-87
2021/05/31 11:12:01;;;;;;;5.17;2.50;;;25.90;82.20;;;;;;5049696;28;20250;-86
2021/05/31 11:14:36;;;;;;;4.77;2.13;;;26.00;86.70;;;;;;5047553;28;20254;-86
2021/05/31 11:17:08;;;;;;;4.90;2.67;;;26.10;86.10;;;;;;5044175;28;20685;-86
2021/05/31 11:19:38;;;;;;;4.67;2.20;;;25.60;84.80;;;;;;5046632;28;20246;-86
2021/05/31 11:22:14;;;;;;;3.90;2.67;;;25.90;86.20;;;;;;5056955;28;20322;-87
2021/05/31 11:24:49;;;;;;;3.57;2.30;;;26.50;89.10;;;;;;5045052;28;20328;-87
2021/05/31 11:27:21;;;;;;;3.73;2.47;;;26.60;82.30;;;;;;5049392;28;20237;-86
2021/05/31 11:29:57;;;;;;;4.33;2.50;;;26.80;85.60;;;;;;5053557;28;20242;-87
2021/05/31 11:32:25;;;;;;;4.63;2.50;;;26.70;81.40;;;;;;5046565;28;20949;-88
2021/05/31 11:35:26;;;;;;;3.93;2.57;;;27.00;85.70;;;;;;5051765;28;20245;-87
2021/05/31 11:38:11;;;;;;;3.27;2.47;;;26.90;85.90;;;;;;5065438;28;20247;-87
2021/05/31 11:40:41;;;;;;;4.80;2.30;;;26.90;82.80;;;;;;5065746;28;20726;-87
2021/05/31 11:43:13;;;;;;;2.73;2.40;;;26.90;85.70;;;;;;5044683;28;21916;-87
2021/05/31 11:45:46;;;;;;;4.10;2.40;;;26.20;83.40;;;;;;5053625;28;20718;-89
2021/05/31 11:48:17;;;;;;;4.30;2.60;;;26.30;86.30;;;;;;5053299;28;20238;-88
2021/05/31 11:50:47;;;;;;;5.47;2.83;;;26.80;84.70;;;;;;5053067;28;21537;-89
2021/05/31 11:53:18;;;;;;;3.87;2.47;;;26.50;79.20;;;;;;5049080;28;20256;-88
2021/05/31 11:55:50;;;;;;;5.10;2.60;;;26.60;86.20;;;;;;5050691;28;20254;-87
2021/05/31 11:58:20;;;;;;;4.30;2.77;;;26.80;84.50;;;;;;5044118;28;20231;-88
2021/05/31 12:00:48;;;;;;;5.27;3.00;;;26.50;87.90;;;;;;5054572;28;20322;-86
2021/05/31 12:03:16;;;;;;;4.37;2.90;;;26.30;85.90;;;;;;5048374;28;20318;-86
2021/05/31 12:05:46;;;;;;;5.07;2.67;;;25.80;83.70;;;;;;5050190;28;20275;-87
2021/05/31 12:08:22;;;;;;;7.53;3.40;;;25.20;86.50;;;;;;5048370;28;20237;-87
2021/05/31 12:10:51;;;;;;;5.03;3.20;;;24.80;84.10;;;;;;5045360;28;20251;-87
2021/05/31 12:13:29;;;;;;;3.63;2.90;;;24.90;88.40;;;;;;5049431;28;20701;-87
2021/05/31 12:15:57;;;;;;;3.33;2.70;;;25.00;86.80;;;;;;5052177;28;20652;-88
2021/05/31 12:18:27;;;;;;;4.17;3.53;;;24.50;90.50;;;;;;5052624;28;20861;-85
2021/05/31 12:21:22;;;;;;;5.00;2.80;;;24.00;85.50;;;;;;5049974;28;20253;-87
2021/05/31 12:23:52;;;;;;;6.00;3.23;;;24.50;93.10;;;;;;5044377;28;20640;-87
2021/05/31 12:26:22;;;;;;;6.00;2.80;;;24.50;91.90;;;;;;5050124;28;20303;-85
2021/05/31 12:28:59;;;;;;;4.70;3.10;;;24.70;91.10;;;;;;5044873;28;20243;-87
2021/05/31 12:31:33;;;;;;;3.67;2.97;;;24.80;91.50;;;;;;5043346;28;20243;-86
2021/05/31 12:34:06;;;;;;;3.37;2.60;;;24.90;91.50;;;;;;5049189;28;20238;-85
2021/05/31 12:36:34;;;;;;;3.67;2.67;;;24.80;92.00;;;;;;5045115;28;20796;-87
2021/05/31 12:39:05;;;;;;;4.27;3.40;;;24.90;91.70;;;;;;5049240;28;20238;-87
2021/05/31 12:41:33;;;;;;;4.33;3.10;;;24.70;90.80;;;;;;5045996;28;20254;-85
2021/05/31 12:44:06;;;;;;;5.97;3.67;;;24.50;91.10;;;;;;5048539;28;20244;-86
2021/05/31 12:46:38;;;;;;;6.20;3.47;;;24.20;91.00;;;;;;5050565;28;20309;-84
2021/05/31 12:49:14;;;;;;;4.13;3.30;;;23.90;88.80;;;;;;5040708;28;20230;-87
2021/05/31 12:51:52;;;;;;;6.87;3.60;;;24.20;92.40;;;;;;5049167;28;20244;-85
2021/05/31 12:54:24;;;;;;;4.80;3.00;;;24.10;90.30;;;;;;5051326;28;20238;-85
2021/05/31 12:56:56;;;;;;;5.73;3.00;;;23.90;92.70;;;;;;5051304;28;20245;-86
2021/05/31 12:59:25;;;;;;;7.43;3.13;;;24.10;90.10;;;;;;5057499;28;20232;-85
2021/05/31 13:01:53;;;;;;;6.00;3.30;;;24.00;91.70;;;;;;5043085;28;20294;-80
2021/05/31 13:04:27;;;;;;;4.77;3.20;;;23.90;93.00;;;;;;5045984;28;20241;-85
2021/05/31 13:06:59;;;;;;;5.53;4.00;;;23.80;93.00;;;;;;5048502;28;20714;-86
2021/05/31 13:09:30;;;;;;;6.60;3.93;;;23.90;94.20;;;;;;5063656;28;20239;-85
2021/05/31 13:12:00;;;;;;;6.67;3.53;;;23.90;93.40;;;;;;5047590;28;20243;-82
2021/05/31 13:14:28;;;;;;;5.47;3.60;;;23.60;92.10;;;;;;5041323;28;20256;-83